createdAt,value
2022-12-16T00:01:33.175Z,73.68
2022-12-16T00:04:00.008Z,73.16
2022-12-16T00:06:31.015Z,73.33
2022-12-16T00:08:57.545Z,73.41
2022-12-16T00:11:24.090Z,73.04
2022-12-16T00:13:50.870Z,73.22
2022-12-16T00:16:20.236Z,72.78
2022-12-16T00:18:47.684Z,73.47
2022-12-16T00:21:14.517Z,73.66
2022-12-16T00:23:44.438Z,73.61
2022-12-16T00:26:11.956Z,73.75
2022-12-16T00:28:39.066Z,73.27
2022-12-16T00:31:05.953Z,73.59
2022-12-16T00:33:33.223Z,73.47
2022-12-16T00:36:00.066Z,72.83
2022-12-16T00:38:27.147Z,72.80
2022-12-16T00:40:53.861Z,73.57
2022-12-16T00:43:20.549Z,73.66
2022-12-16T00:45:47.853Z,73.78
2022-12-16T00:48:14.895Z,74.30
2022-12-16T00:50:41.567Z,74.48
2022-12-16T00:53:08.654Z,74.25
2022-12-16T00:55:35.228Z,74.08
2022-12-16T00:58:01.864Z,74.41
2022-12-16T01:00:28.427Z,74.46
2022-12-16T01:02:55.163Z,73.77
2022-12-16T01:05:27.018Z,73.65
2022-12-16T01:07:54.874Z,73.44
2022-12-16T01:10:22.215Z,74.24
2022-12-16T01:12:48.900Z,74.43
2022-12-16T01:15:15.955Z,73.22
2022-12-16T01:17:42.730Z,73.92
2022-12-16T01:20:10.553Z,73.30
2022-12-16T01:22:37.347Z,73.75
2022-12-16T01:25:04.343Z,73.39
2022-12-16T01:27:31.018Z,72.93
2022-12-16T01:29:57.578Z,73.38
2022-12-16T01:32:24.094Z,73.07
2022-12-16T01:34:55.273Z,72.67
2022-12-16T01:37:23.320Z,73.15
2022-12-16T01:39:49.874Z,72.93
2022-12-16T01:42:19.533Z,73.27
2022-12-16T01:44:48.807Z,73.11
2022-12-16T01:47:18.071Z,73.45
2022-12-16T01:49:50.623Z,73.74
2022-12-16T01:52:23.712Z,73.33
2022-12-16T01:55:13.206Z,73.35
2022-12-16T01:57:50.523Z,73.17
2022-12-16T02:00:17.319Z,73.77
2022-12-16T02:02:46.089Z,73.09
2022-12-16T02:05:22.741Z,73.18
2022-12-16T02:07:56.636Z,73.90
2022-12-16T02:10:30.862Z,73.11
2022-12-16T02:13:24.265Z,73.52
2022-12-16T02:15:57.831Z,73.53
2022-12-16T02:18:52.364Z,72.82
2022-12-16T02:21:38.070Z,74.02
2022-12-16T02:24:22.751Z,73.98
2022-12-16T02:26:55.210Z,73.24
2022-12-16T02:30:04.719Z,73.76
2022-12-16T02:32:37.192Z,73.68
2022-12-16T02:35:10.282Z,73.15
2022-12-16T02:37:43.102Z,73.77
2022-12-16T02:40:33.352Z,73.53
2022-12-16T02:43:15.694Z,73.53
2022-12-16T02:45:42.398Z,73.25
2022-12-16T02:48:09.147Z,73.62
2022-12-16T02:50:40.387Z,72.66
2022-12-16T02:53:08.564Z,73.17
2022-12-16T02:56:25.064Z,73.50
2022-12-16T02:59:10.028Z,72.86
2022-12-16T03:01:46.658Z,73.08
2022-12-16T03:04:18.878Z,73.55
2022-12-16T03:06:49.199Z,73.34
2022-12-16T03:09:21.214Z,73.30
2022-12-16T03:11:49.503Z,73.17
2022-12-16T03:14:17.295Z,73.38
2022-12-16T03:16:44.992Z,72.76
2022-12-16T03:19:12.164Z,73.07
2022-12-16T03:21:43.914Z,72.97
2022-12-16T03:24:13.793Z,73.39
2022-12-16T03:26:50.934Z,73.01
2022-12-16T03:29:47.007Z,73.04
2022-12-16T03:32:35.628Z,72.68
2022-12-16T03:35:16.526Z,73.25
2022-12-16T03:37:44.476Z,73.08
2022-12-16T03:40:11.980Z,73.25
2022-12-16T03:42:39.513Z,72.84
2022-12-16T03:45:08.423Z,72.54
2022-12-16T03:47:34.965Z,72.42
2022-12-16T03:50:01.706Z,72.82
2022-12-16T03:52:28.792Z,72.58
2022-12-16T03:54:55.384Z,73.20
2022-12-16T03:57:21.957Z,73.37
2022-12-16T03:59:48.521Z,73.00
2022-12-16T04:02:15.221Z,73.00
2022-12-16T04:04:41.936Z,72.55
2022-12-16T04:07:20.520Z,72.95
2022-12-16T04:09:47.870Z,72.93
2022-12-16T04:12:32.854Z,72.71
2022-12-16T04:15:37.633Z,71.99
2022-12-16T04:18:24.008Z,72.71
2022-12-16T04:21:11.863Z,72.66
2022-12-16T04:24:10.222Z,72.41
2022-12-16T04:26:56.924Z,72.94
2022-12-16T04:29:23.799Z,72.68
2022-12-16T04:31:51.203Z,72.32
2022-12-16T04:34:26.810Z,72.52
2022-12-16T04:37:17.643Z,71.92
2022-12-16T04:40:03.013Z,72.73
2022-12-16T04:42:48.382Z,72.83
2022-12-16T04:45:33.795Z,73.02
2022-12-16T04:48:18.800Z,73.18
2022-12-16T04:51:04.320Z,72.95
2022-12-16T04:53:49.436Z,72.35
2022-12-16T04:56:34.516Z,72.49
2022-12-16T04:59:19.582Z,73.16
2022-12-16T05:02:04.917Z,72.64
2022-12-16T05:04:50.225Z,73.12
2022-12-16T05:07:38.513Z,72.74
2022-12-16T05:10:25.248Z,73.29
2022-12-16T05:13:12.879Z,73.05
2022-12-16T05:15:58.460Z,72.48
2022-12-16T05:18:43.675Z,72.28
2022-12-16T05:21:28.661Z,72.38
2022-12-16T05:24:14.076Z,73.30
2022-12-16T05:26:59.012Z,72.44
2022-12-16T05:29:44.270Z,72.65
2022-12-16T05:32:29.171Z,72.60
2022-12-16T05:35:14.208Z,73.04
2022-12-16T05:37:58.999Z,72.91
2022-12-16T05:40:44.003Z,73.03
2022-12-16T05:43:28.977Z,72.56
2022-12-16T05:46:14.236Z,73.69
2022-12-16T05:49:04.093Z,72.58
2022-12-16T05:51:49.167Z,73.27
2022-12-16T05:54:34.367Z,72.26
2022-12-16T05:57:19.372Z,72.42
2022-12-16T06:00:04.292Z,72.05
2022-12-16T06:02:56.672Z,72.69
2022-12-16T06:05:42.033Z,72.52
2022-12-16T06:08:26.854Z,72.47
2022-12-16T06:11:11.754Z,72.48
2022-12-16T06:13:56.715Z,72.50
2022-12-16T06:16:41.683Z,72.59
2022-12-16T06:19:26.822Z,72.12
2022-12-16T06:22:11.905Z,72.49
2022-12-16T06:24:56.895Z,71.91
2022-12-16T06:27:41.744Z,72.41
2022-12-16T06:30:27.443Z,72.87
2022-12-16T06:33:12.224Z,72.01
2022-12-16T06:35:57.117Z,71.97
2022-12-16T06:38:42.243Z,72.05
2022-12-16T06:41:27.186Z,71.71
2022-12-16T06:44:12.353Z,72.20
2022-12-16T06:46:57.264Z,72.68
2022-12-16T06:49:42.688Z,72.73
2022-12-16T06:52:27.807Z,72.69
2022-12-16T06:55:12.833Z,72.62
2022-12-16T06:57:57.725Z,73.35
2022-12-16T07:00:42.763Z,72.77
2022-12-16T07:03:31.418Z,73.05
2022-12-16T07:06:19.462Z,72.22
2022-12-16T07:09:04.409Z,72.75
2022-12-16T07:11:49.671Z,72.21
2022-12-16T07:14:34.805Z,72.33
2022-12-16T07:17:19.657Z,72.28
2022-12-16T07:20:04.724Z,73.04
2022-12-16T07:23:01.041Z,72.78
2022-12-16T07:25:49.799Z,72.88
2022-12-16T07:28:35.021Z,72.91
2022-12-16T07:31:20.367Z,72.22
2022-12-16T07:34:05.666Z,71.96
2022-12-16T07:36:50.629Z,72.19
2022-12-16T07:39:35.793Z,71.80
2022-12-16T07:42:20.763Z,71.92
2022-12-16T07:45:05.950Z,71.90
2022-12-16T07:47:50.825Z,71.53
2022-12-16T07:50:36.448Z,72.00
2022-12-16T07:53:22.309Z,71.97
2022-12-16T07:56:07.540Z,71.42
2022-12-16T07:58:52.298Z,71.37
2022-12-16T08:01:40.273Z,71.37
2022-12-16T08:04:25.600Z,71.46
2022-12-16T08:07:10.724Z,71.56
2022-12-16T08:09:56.121Z,71.93
2022-12-16T08:12:41.317Z,72.49
2022-12-16T08:15:26.784Z,72.56
2022-12-16T08:18:12.135Z,72.46
2022-12-16T08:20:57.088Z,71.95
2022-12-16T08:23:42.311Z,72.50
2022-12-16T08:26:27.443Z,72.56
2022-12-16T08:29:35.208Z,71.85
2022-12-16T08:32:18.187Z,71.66
2022-12-16T08:35:03.209Z,71.63
2022-12-16T08:37:48.427Z,71.64
2022-12-16T08:40:35.741Z,71.30
2022-12-16T08:43:21.599Z,71.62
2022-12-16T08:46:07.147Z,71.20
2022-12-16T08:48:52.309Z,71.12
2022-12-16T08:51:37.339Z,70.83
2022-12-16T08:54:22.225Z,70.48
2022-12-16T08:57:07.227Z,69.95
2022-12-16T08:59:52.078Z,69.40
2022-12-16T09:02:37.449Z,69.09
2022-12-16T09:05:23.579Z,67.06
2022-12-16T09:08:08.607Z,65.98
2022-12-16T09:10:53.501Z,65.15
2022-12-16T09:13:40.366Z,65.41
2022-12-16T09:16:25.663Z,64.83
2022-12-16T09:19:11.972Z,63.95
2022-12-16T09:21:56.982Z,63.49
2022-12-16T09:24:42.207Z,64.52
2022-12-16T09:27:27.540Z,65.33
2022-12-16T09:30:12.406Z,65.57
2022-12-16T09:33:01.963Z,66.36
2022-12-16T09:35:47.206Z,67.27
2022-12-16T09:38:32.608Z,67.45
2022-12-16T09:41:44.620Z,67.32
2022-12-16T09:44:34.168Z,67.03
2022-12-16T09:47:32.628Z,67.30
2022-12-16T09:50:18.306Z,67.94
2022-12-16T09:53:06.101Z,68.04
2022-12-16T09:55:55.370Z,67.73
2022-12-16T09:58:42.039Z,67.82
2022-12-16T10:01:30.132Z,67.79
2022-12-16T10:04:15.550Z,67.52
2022-12-16T10:07:04.346Z,66.64
2022-12-16T10:09:51.500Z,66.42
2022-12-16T10:12:51.787Z,66.26
2022-12-16T10:15:54.904Z,66.74
2022-12-16T10:18:49.693Z,66.89
2022-12-16T10:21:40.141Z,66.34
2022-12-16T10:24:43.971Z,66.79
2022-12-16T10:27:36.065Z,66.66
2022-12-16T10:30:22.659Z,66.81
2022-12-16T10:33:09.184Z,66.34
2022-12-16T10:35:56.604Z,66.87
2022-12-16T10:38:50.411Z,66.59
2022-12-16T10:41:36.730Z,66.72
2022-12-16T10:44:25.286Z,66.87
2022-12-16T10:47:10.625Z,67.20
2022-12-16T10:49:55.959Z,66.77
2022-12-16T10:52:41.720Z,66.71
2022-12-16T10:55:53.033Z,66.29
2022-12-16T10:58:56.214Z,66.91
2022-12-16T11:01:44.051Z,66.95
2022-12-16T11:04:55.648Z,66.74
2022-12-16T11:08:02.845Z,67.35
2022-12-16T11:10:58.051Z,68.26
2022-12-16T11:13:51.448Z,67.70
2022-12-16T11:16:41.430Z,67.73
2022-12-16T11:19:44.123Z,68.10
2022-12-16T11:22:38.124Z,68.71
2022-12-16T11:25:33.386Z,68.00
2022-12-16T11:28:31.815Z,69.00
2022-12-16T11:31:31.791Z,68.58
2022-12-16T11:34:18.629Z,69.00
2022-12-16T11:37:04.257Z,68.91
2022-12-16T11:39:50.399Z,68.26
2022-12-16T11:42:42.973Z,68.84
2022-12-16T11:45:37.183Z,68.81
2022-12-16T11:48:31.357Z,69.52
2022-12-16T11:51:17.031Z,69.66
2022-12-16T11:54:08.885Z,69.35
2022-12-16T11:56:56.774Z,69.43
2022-12-16T11:59:55.342Z,69.63
2022-12-16T12:02:50.005Z,69.56
2022-12-16T12:05:37.279Z,69.09
2022-12-16T12:08:31.603Z,68.62
2022-12-16T12:11:23.472Z,68.79
2022-12-16T12:14:39.302Z,68.50
2022-12-16T12:17:35.978Z,69.04
2022-12-16T12:20:42.608Z,69.31
2022-12-16T12:23:29.908Z,69.99
2022-12-16T12:26:26.346Z,69.43
2022-12-16T12:29:31.842Z,69.81
2022-12-16T12:32:45.962Z,69.96
2022-12-16T12:35:50.312Z,69.93
2022-12-16T12:38:49.210Z,69.66
2022-12-16T12:41:46.231Z,69.87
2022-12-16T12:45:01.179Z,69.56
2022-12-16T12:47:48.406Z,69.95
2022-12-16T12:50:42.753Z,70.16
2022-12-16T12:53:49.603Z,70.43
2022-12-16T12:56:46.830Z,70.40
2022-12-16T12:59:50.932Z,69.28
2022-12-16T13:02:41.469Z,69.84
2022-12-16T13:05:33.246Z,69.83
2022-12-16T13:08:56.724Z,70.24
2022-12-16T13:11:42.877Z,70.54
2022-12-16T13:14:49.959Z,70.50
2022-12-16T13:17:42.006Z,71.10
2022-12-16T13:20:52.138Z,71.20
2022-12-16T13:23:46.659Z,70.67
2022-12-16T13:26:34.094Z,71.50
2022-12-16T13:29:32.070Z,70.59
2022-12-16T13:32:30.603Z,70.25
2022-12-16T13:35:23.873Z,70.21
2022-12-16T13:38:14.085Z,70.49
2022-12-16T13:41:16.566Z,70.54
2022-12-16T13:44:15.622Z,70.24
2022-12-16T13:47:12.069Z,70.36
2022-12-16T13:50:04.793Z,69.90
2022-12-16T13:52:59.015Z,70.84
2022-12-16T13:55:56.048Z,70.46
2022-12-16T13:59:12.183Z,70.11
2022-12-16T14:02:06.529Z,70.53
2022-12-16T14:04:54.417Z,70.24
2022-12-16T14:07:44.127Z,70.24
2022-12-16T14:10:54.567Z,70.07
2022-12-16T14:13:49.953Z,70.71
2022-12-16T14:16:45.240Z,70.38
2022-12-16T14:19:51.644Z,70.48
2022-12-16T14:22:55.310Z,70.83
2022-12-16T14:25:41.833Z,70.76
2022-12-16T14:28:40.677Z,70.68
2022-12-16T14:31:34.318Z,71.01
2022-12-16T14:34:21.584Z,70.74
2022-12-16T14:37:06.820Z,71.35
2022-12-16T14:39:57.356Z,70.79
2022-12-16T14:42:47.644Z,70.56
2022-12-16T14:45:50.701Z,70.61
2022-12-16T14:48:49.454Z,70.81
2022-12-16T14:51:53.093Z,70.89
2022-12-16T14:54:46.439Z,71.10
2022-12-16T14:57:35.050Z,71.48
2022-12-16T15:00:25.659Z,71.12
2022-12-16T15:03:14.116Z,71.15
2022-12-16T15:06:01.107Z,71.23
2022-12-16T15:08:48.262Z,71.07
2022-12-16T15:11:56.741Z,71.23
2022-12-16T15:14:45.935Z,71.76
2022-12-16T15:17:41.071Z,71.19
2022-12-16T15:20:36.396Z,71.55
2022-12-16T15:23:38.234Z,70.90
2022-12-16T15:26:24.722Z,70.65
2022-12-16T15:29:10.019Z,71.41
2022-12-16T15:32:02.969Z,71.58
2022-12-16T15:35:05.697Z,71.83
2022-12-16T15:38:00.757Z,71.76
2022-12-16T15:40:50.686Z,72.06
2022-12-16T15:43:40.997Z,71.53
2022-12-16T15:46:35.624Z,71.75
2022-12-16T15:49:21.382Z,71.75
2022-12-16T15:52:08.147Z,71.24
2022-12-16T15:55:08.641Z,71.42
2022-12-16T15:57:55.319Z,71.32
2022-12-16T16:00:42.191Z,71.08
2022-12-16T16:03:40.095Z,70.88
2022-12-16T16:06:44.878Z,70.95
2022-12-16T16:09:34.670Z,71.18
2022-12-16T16:12:19.740Z,70.81
2022-12-16T16:15:04.531Z,70.75
2022-12-16T16:17:49.621Z,70.25
2022-12-16T16:20:36.328Z,71.19
2022-12-16T16:23:21.648Z,70.92
2022-12-16T16:26:07.571Z,70.73
2022-12-16T16:28:53.364Z,71.35
2022-12-16T16:31:38.789Z,71.53
2022-12-16T16:34:23.973Z,71.12
2022-12-16T16:37:12.522Z,71.31
2022-12-16T16:39:57.703Z,71.13
2022-12-16T16:42:43.066Z,71.25
2022-12-16T16:45:28.698Z,71.40
2022-12-16T16:48:23.391Z,71.68
2022-12-16T16:51:08.453Z,71.73
2022-12-16T16:53:53.774Z,71.48
2022-12-16T16:56:38.950Z,71.80
2022-12-16T16:59:31.832Z,72.03
2022-12-16T17:02:17.241Z,72.36
2022-12-16T17:05:02.507Z,72.30
2022-12-16T17:07:52.184Z,72.44
2022-12-16T17:10:38.834Z,72.28
2022-12-16T17:13:23.786Z,72.39
2022-12-16T17:16:08.706Z,72.75
2022-12-16T17:18:54.023Z,72.11
2022-12-16T17:21:38.946Z,72.03
2022-12-16T17:24:24.485Z,71.88
2022-12-16T17:27:09.589Z,72.04
2022-12-16T17:29:54.781Z,72.12
2022-12-16T17:32:39.953Z,71.90
2022-12-16T17:35:25.383Z,72.16
2022-12-16T17:38:10.403Z,72.06
2022-12-16T17:40:58.230Z,71.85
2022-12-16T17:43:43.073Z,71.95
2022-12-16T17:46:30.230Z,71.80
2022-12-16T17:49:17.032Z,71.72
2022-12-16T17:52:02.759Z,72.10
2022-12-16T17:54:48.082Z,72.61
2022-12-16T17:57:33.284Z,72.33
2022-12-16T18:00:18.245Z,72.13
2022-12-16T18:03:03.600Z,72.05
2022-12-16T18:05:48.735Z,71.99
2022-12-16T18:08:34.054Z,72.23
2022-12-16T18:11:19.103Z,72.48
2022-12-16T18:14:04.218Z,72.24
2022-12-16T18:16:49.609Z,72.33
2022-12-16T18:19:35.345Z,72.40
2022-12-16T18:22:20.726Z,72.46
2022-12-16T18:25:05.671Z,72.36
2022-12-16T18:27:51.175Z,72.93
2022-12-16T18:30:36.186Z,72.35
2022-12-16T18:33:21.134Z,72.53
2022-12-16T18:36:26.010Z,72.94
2022-12-16T18:39:11.231Z,72.67
2022-12-16T18:42:03.610Z,72.90
2022-12-16T18:44:48.881Z,73.37
2022-12-16T18:47:34.448Z,73.13
2022-12-16T18:50:25.469Z,72.63
2022-12-16T18:53:13.007Z,72.76
2022-12-16T18:55:58.275Z,72.40
2022-12-16T18:58:59.609Z,73.42
2022-12-16T19:01:44.860Z,72.94
2022-12-16T19:04:30.178Z,73.12
2022-12-16T19:07:14.944Z,73.51
2022-12-16T19:10:00.239Z,72.92
2022-12-16T19:12:45.386Z,72.92
2022-12-16T19:15:30.464Z,72.43
2022-12-16T19:18:15.580Z,73.11
2022-12-16T19:21:00.694Z,73.13
2022-12-16T19:23:45.975Z,73.40
2022-12-16T19:26:31.259Z,72.88
2022-12-16T19:29:16.614Z,73.38
2022-12-16T19:32:01.863Z,73.02
2022-12-16T19:34:47.276Z,73.87
2022-12-16T19:37:32.248Z,73.34
2022-12-16T19:40:17.262Z,73.95
2022-12-16T19:43:15.782Z,73.88
2022-12-16T19:46:00.856Z,73.49
2022-12-16T19:48:46.128Z,73.95
2022-12-16T19:51:31.317Z,73.52
2022-12-16T19:54:16.500Z,74.10
2022-12-16T19:57:01.719Z,73.54
2022-12-16T19:59:46.974Z,73.93
2022-12-16T20:02:32.282Z,73.37
2022-12-16T20:05:25.118Z,74.24
2022-12-16T20:08:10.081Z,73.83
2022-12-16T20:10:56.353Z,73.64
2022-12-16T20:13:42.148Z,73.65
2022-12-16T20:16:29.869Z,73.97
2022-12-16T20:19:15.426Z,74.19
2022-12-16T20:25:06.181Z,74.23
2022-12-16T20:27:51.449Z,74.37
2022-12-16T20:30:36.905Z,74.48
2022-12-16T20:33:22.339Z,74.46
2022-12-16T20:36:21.679Z,74.08
2022-12-16T20:39:09.429Z,74.47
2022-12-16T20:41:56.111Z,74.12
2022-12-16T20:44:41.343Z,74.04
2022-12-16T20:47:26.291Z,73.82
2022-12-16T20:50:11.131Z,74.55
2022-12-16T20:52:56.583Z,74.65
2022-12-16T20:55:41.542Z,73.58
2022-12-16T20:58:26.642Z,74.38
2022-12-16T21:01:12.838Z,73.82
2022-12-16T21:03:58.050Z,73.84
2022-12-16T21:06:43.243Z,74.16
2022-12-16T21:09:28.517Z,74.87
2022-12-16T21:12:13.859Z,73.99
2022-12-16T21:14:59.262Z,74.41
2022-12-16T21:17:44.221Z,74.22
2022-12-16T21:20:29.602Z,73.97
2022-12-16T21:23:23.149Z,74.46
2022-12-16T21:26:08.364Z,74.53
2022-12-16T21:28:56.124Z,74.83
2022-12-16T21:31:41.481Z,74.41
2022-12-16T21:34:26.393Z,74.51
2022-12-16T21:37:14.368Z,74.45
2022-12-16T21:39:59.296Z,75.08
2022-12-16T21:42:44.411Z,74.65
2022-12-16T21:45:29.664Z,74.65
2022-12-16T21:48:14.579Z,74.79
2022-12-16T21:50:59.797Z,74.89
2022-12-16T21:53:45.119Z,75.37
2022-12-16T21:56:30.512Z,75.01
2022-12-16T21:59:15.877Z,75.47
2022-12-16T22:02:00.952Z,75.18
2022-12-16T22:04:46.216Z,75.59
2022-12-16T22:07:31.240Z,75.86
2022-12-16T22:10:16.123Z,75.95
2022-12-16T22:13:01.275Z,75.60
2022-12-16T22:15:46.125Z,75.56
2022-12-16T22:18:31.246Z,75.82
2022-12-16T22:21:18.637Z,76.26
2022-12-16T22:24:03.900Z,75.83
2022-12-16T22:26:49.304Z,75.67
2022-12-16T22:29:34.562Z,75.74
2022-12-16T22:32:19.522Z,75.39
2022-12-16T22:35:04.471Z,75.74
2022-12-16T22:37:49.966Z,76.24
2022-12-16T22:40:34.924Z,76.16
2022-12-16T22:43:37.023Z,76.61
2022-12-16T22:46:22.986Z,75.98
2022-12-16T22:49:07.968Z,75.81
2022-12-16T22:51:53.806Z,76.25
2022-12-16T22:54:39.017Z,76.17
2022-12-16T22:57:26.670Z,76.43
2022-12-16T23:00:11.906Z,76.14
2022-12-16T23:02:56.938Z,76.17
2022-12-16T23:05:42.236Z,76.19
2022-12-16T23:08:27.031Z,76.50
2022-12-16T23:11:13.880Z,77.40
2022-12-16T23:13:59.079Z,76.50
2022-12-16T23:16:44.055Z,77.00
2022-12-16T23:19:29.159Z,76.34
2022-12-16T23:22:14.146Z,76.50
2022-12-16T23:24:59.148Z,76.29
2022-12-16T23:27:44.219Z,76.46
2022-12-16T23:30:29.908Z,75.96
2022-12-16T23:33:17.367Z,76.77
2022-12-16T23:36:02.208Z,76.41
2022-12-16T23:38:47.616Z,76.91
2022-12-16T23:41:32.649Z,76.58
2022-12-16T23:44:17.642Z,76.22
2022-12-16T23:47:02.671Z,76.51
2022-12-16T23:49:47.802Z,75.97
2022-12-16T23:52:32.720Z,76.64
2022-12-16T23:55:17.741Z,76.06
2022-12-16T23:58:03.014Z,76.07
